createdAt,value
2022-10-05T00:00:26.379Z,0.50
2022-10-05T00:02:55.330Z,0.60
2022-10-05T00:05:27.801Z,0.40
2022-10-05T00:07:57.507Z,0.40
2022-10-05T00:10:25.460Z,0.43
2022-10-05T00:12:52.905Z,0.40
2022-10-05T00:15:22.022Z,0.40
2022-10-05T00:17:50.855Z,0.30
2022-10-05T00:20:22.012Z,0.40
2022-10-05T00:22:50.268Z,0.40
2022-10-05T00:25:19.927Z,0.40
2022-10-05T00:27:52.945Z,0.35
2022-10-05T00:30:22.300Z,0.40
2022-10-05T00:32:53.034Z,0.30
2022-10-05T00:35:23.575Z,0.38
2022-10-05T00:37:55.688Z,0.40
2022-10-05T00:40:35.154Z,0.40
2022-10-05T00:43:22.450Z,0.40
2022-10-05T00:45:53.258Z,0.40
2022-10-05T00:48:32.591Z,0.40
2022-10-05T00:51:10.200Z,0.30
2022-10-05T00:53:45.161Z,0.50
2022-10-05T00:56:25.473Z,0.40
2022-10-05T00:59:05.425Z,0.40
2022-10-05T01:01:37.867Z,0.50
2022-10-05T01:04:17.261Z,0.50
2022-10-05T01:06:57.746Z,0.50
2022-10-05T01:09:37.998Z,0.50
2022-10-05T01:12:12.369Z,0.50
2022-10-05T01:14:47.358Z,0.50
2022-10-05T01:17:20.039Z,0.40
2022-10-05T01:20:21.804Z,0.50
2022-10-05T01:23:11.088Z,0.50
2022-10-05T01:25:52.832Z,0.57
2022-10-05T01:28:25.019Z,0.70
2022-10-05T01:31:01.522Z,0.60
2022-10-05T01:33:38.865Z,0.63
2022-10-05T01:36:15.590Z,0.70
2022-10-05T01:38:52.804Z,0.70
2022-10-05T01:41:32.110Z,0.73
2022-10-05T01:44:06.456Z,0.70
2022-10-05T01:49:19.108Z,0.70
2022-10-05T01:52:00.471Z,0.80
2022-10-05T01:54:40.788Z,0.90
2022-10-05T01:57:20.808Z,1.00
2022-10-05T02:00:03.324Z,1.10
2022-10-05T02:02:35.832Z,1.00
2022-10-05T02:05:09.704Z,0.82
2022-10-05T02:07:42.361Z,0.98
2022-10-05T02:10:18.784Z,1.00
2022-10-05T02:12:49.314Z,1.20
2022-10-05T02:15:23.582Z,1.02
2022-10-05T02:20:24.519Z,1.00
2022-10-05T02:22:54.700Z,1.30
2022-10-05T02:25:24.608Z,1.27
2022-10-05T02:27:57.665Z,1.17
2022-10-05T02:30:26.911Z,1.10
2022-10-05T02:32:59.397Z,1.13
2022-10-05T02:35:26.942Z,1.27
2022-10-05T02:38:10.615Z,1.58
2022-10-05T02:40:48.885Z,1.38
2022-10-05T02:43:27.108Z,1.40
2022-10-05T02:46:06.124Z,1.40
2022-10-05T02:48:42.571Z,1.30
2022-10-05T02:51:18.893Z,1.20
2022-10-05T02:54:04.400Z,1.25
2022-10-05T02:56:39.326Z,1.30
2022-10-05T02:59:13.380Z,1.30
2022-10-05T03:01:48.987Z,1.33
2022-10-05T03:04:27.080Z,1.33
2022-10-05T03:07:04.488Z,1.25
2022-10-05T03:09:38.493Z,1.35
2022-10-05T03:12:16.660Z,1.20
2022-10-05T03:14:54.375Z,1.00
2022-10-05T03:17:26.542Z,1.00
2022-10-05T03:20:08.348Z,1.00
2022-10-05T03:22:48.500Z,1.10
2022-10-05T03:25:28.478Z,1.00
2022-10-05T03:28:02.059Z,0.90
2022-10-05T03:30:37.866Z,1.00
2022-10-05T03:33:16.475Z,1.00
2022-10-05T03:35:51.350Z,0.95
2022-10-05T03:38:24.707Z,0.90
2022-10-05T03:40:58.026Z,0.90
2022-10-05T03:43:42.699Z,0.98
2022-10-05T03:46:14.939Z,0.90
2022-10-05T03:48:53.163Z,0.90
2022-10-05T03:51:28.622Z,0.90
2022-10-05T03:54:00.872Z,1.00
2022-10-05T03:56:35.749Z,0.90
2022-10-05T03:59:13.020Z,0.90
2022-10-05T04:01:46.287Z,0.80
2022-10-05T04:04:23.001Z,0.90
2022-10-05T04:06:55.091Z,0.90
2022-10-05T04:09:27.157Z,0.90
2022-10-05T04:12:02.772Z,0.80
2022-10-05T04:14:35.753Z,0.75
2022-10-05T04:17:09.553Z,0.90
2022-10-05T04:19:44.994Z,0.80
2022-10-05T04:22:16.803Z,0.88
2022-10-05T04:24:50.099Z,0.80
2022-10-05T04:27:20.175Z,1.00
2022-10-05T04:29:54.999Z,0.85
2022-10-05T04:32:31.117Z,0.80
2022-10-05T04:35:21.326Z,0.90
2022-10-05T04:37:56.804Z,0.80
2022-10-05T04:40:39.978Z,0.70
2022-10-05T04:43:15.261Z,0.70
2022-10-05T04:46:00.329Z,0.77
2022-10-05T04:48:51.589Z,0.70
2022-10-05T04:51:35.545Z,0.60
2022-10-05T04:54:15.291Z,0.77
2022-10-05T04:56:50.293Z,0.73
2022-10-05T04:59:43.254Z,0.68
2022-10-05T05:02:21.849Z,0.70
2022-10-05T05:05:05.900Z,0.80
2022-10-05T05:07:43.753Z,0.80
2022-10-05T05:10:40.050Z,0.70
2022-10-05T05:13:21.191Z,0.80
2022-10-05T05:15:53.878Z,0.80
2022-10-05T05:18:46.923Z,0.90
2022-10-05T05:21:25.775Z,1.00
2022-10-05T05:24:03.886Z,0.75
2022-10-05T05:26:52.136Z,0.90
2022-10-05T05:29:25.712Z,0.90
2022-10-05T05:32:02.941Z,0.83
2022-10-05T05:34:44.784Z,0.82
2022-10-05T05:37:26.248Z,0.90
2022-10-05T05:40:04.758Z,0.90
2022-10-05T05:42:41.457Z,0.95
2022-10-05T05:45:17.622Z,1.00
2022-10-05T05:47:53.702Z,1.02
2022-10-05T05:50:34.904Z,0.90
2022-10-05T05:53:08.092Z,0.65
2022-10-05T05:55:41.275Z,0.70
2022-10-05T05:58:15.832Z,0.60
2022-10-05T06:00:47.022Z,0.65
2022-10-05T06:03:20.207Z,0.90
2022-10-05T06:05:52.106Z,0.75
2022-10-05T06:08:29.374Z,0.80
2022-10-05T06:11:02.501Z,0.80
2022-10-05T06:13:34.294Z,0.82
2022-10-05T06:16:09.301Z,0.77
2022-10-05T06:18:40.716Z,0.70
2022-10-05T06:21:16.847Z,0.80
2022-10-05T06:23:49.700Z,0.75
2022-10-05T06:26:39.615Z,1.42
2022-10-05T06:29:13.326Z,1.00
2022-10-05T06:31:59.163Z,0.85
2022-10-05T06:34:47.509Z,0.95
2022-10-05T06:37:24.760Z,1.02
2022-10-05T06:40:04.823Z,1.40
2022-10-05T06:43:03.329Z,1.13
2022-10-05T06:45:43.850Z,1.00
2022-10-05T06:48:20.937Z,0.85
2022-10-05T06:50:55.911Z,0.80
2022-10-05T06:53:32.322Z,0.90
2022-10-05T06:56:08.440Z,0.75
2022-10-05T06:58:49.456Z,0.60
2022-10-05T07:01:30.030Z,0.70
2022-10-05T07:04:15.544Z,0.80
2022-10-05T07:06:50.643Z,0.90
2022-10-05T07:09:36.934Z,0.90
2022-10-05T07:12:20.837Z,0.90
2022-10-05T07:15:02.617Z,1.00
2022-10-05T07:17:45.501Z,0.80
2022-10-05T07:20:18.611Z,0.98
2022-10-05T07:23:02.000Z,0.80
2022-10-05T07:25:36.831Z,1.85
2022-10-05T07:28:08.735Z,0.70
2022-10-05T07:30:46.806Z,0.70
2022-10-05T07:33:19.620Z,0.60
2022-10-05T07:36:11.803Z,0.50
2022-10-05T07:38:43.499Z,0.60
2022-10-05T07:41:19.242Z,0.52
2022-10-05T07:44:03.017Z,0.60
2022-10-05T07:46:46.555Z,0.50
2022-10-05T07:49:24.254Z,0.50
2022-10-05T07:51:56.721Z,0.50
2022-10-05T07:54:30.301Z,1.05
2022-10-05T07:57:08.489Z,0.50
2022-10-05T07:59:44.088Z,0.43
2022-10-05T08:02:23.469Z,0.50
2022-10-05T08:04:58.316Z,0.50
2022-10-05T08:07:26.425Z,0.40
2022-10-05T08:10:00.281Z,0.50
2022-10-05T08:12:33.219Z,0.40
2022-10-05T08:15:06.780Z,0.45
2022-10-05T08:17:47.412Z,0.40
2022-10-05T08:20:30.609Z,0.40
2022-10-05T08:23:02.708Z,0.40
2022-10-05T08:25:39.624Z,0.40
2022-10-05T08:28:15.231Z,0.35
2022-10-05T08:30:55.959Z,0.40
2022-10-05T08:33:28.020Z,0.43
2022-10-05T08:36:07.123Z,0.57
2022-10-05T08:38:35.510Z,0.40
2022-10-05T08:41:56.279Z,0.40
2022-10-05T08:44:58.720Z,0.40
2022-10-05T08:47:42.498Z,0.40
2022-10-05T08:50:26.094Z,0.40
2022-10-05T08:53:28.444Z,0.50
2022-10-05T08:56:28.454Z,0.50
2022-10-05T08:59:11.422Z,0.43
2022-10-05T09:02:01.478Z,0.50
2022-10-05T09:04:43.867Z,0.40
2022-10-05T09:07:22.621Z,0.60
2022-10-05T09:10:12.654Z,0.50
2022-10-05T09:13:14.647Z,0.60
2022-10-05T09:16:05.312Z,0.68
2022-10-05T09:18:54.938Z,0.90
2022-10-05T09:21:41.655Z,0.90
2022-10-05T09:24:26.821Z,0.60
2022-10-05T09:27:03.172Z,0.63
2022-10-05T09:30:06.255Z,0.65
2022-10-05T09:33:01.320Z,0.57
2022-10-05T09:35:51.352Z,0.70
2022-10-05T09:38:31.574Z,0.50
2022-10-05T09:41:28.147Z,0.40
2022-10-05T09:44:22.989Z,0.50
2022-10-05T09:49:56.900Z,0.50
2022-10-05T09:52:49.668Z,0.73
2022-10-05T09:55:46.758Z,0.65
2022-10-05T09:58:41.291Z,0.70
2022-10-05T10:01:33.190Z,0.60
2022-10-05T10:04:12.925Z,0.70
2022-10-05T10:07:04.876Z,0.63
2022-10-05T10:09:39.892Z,0.60
2022-10-05T10:12:25.206Z,0.50
2022-10-05T10:15:32.184Z,0.50
2022-10-05T10:18:13.707Z,0.60
2022-10-05T10:20:58.846Z,0.60
2022-10-05T10:24:00.129Z,0.60
2022-10-05T10:27:05.449Z,0.55
2022-10-05T10:32:35.070Z,0.40
2022-10-05T10:35:21.311Z,0.47
2022-10-05T10:38:29.456Z,0.40
2022-10-05T10:41:11.740Z,0.40
2022-10-05T10:44:02.151Z,1.17
2022-10-05T10:46:40.656Z,0.30
2022-10-05T10:49:26.718Z,0.40
2022-10-05T10:52:06.896Z,0.40
2022-10-05T10:54:56.916Z,0.50
2022-10-05T10:57:34.890Z,0.77
2022-10-05T11:00:29.784Z,0.73
2022-10-05T11:05:56.151Z,0.60
2022-10-05T11:08:54.554Z,0.60
2022-10-05T11:11:51.264Z,0.60
2022-10-05T11:14:47.248Z,0.52
2022-10-05T11:17:46.953Z,0.60
2022-10-05T11:20:39.354Z,0.50
2022-10-05T11:23:44.047Z,0.60
2022-10-05T11:26:32.465Z,0.50
2022-10-05T11:29:18.448Z,0.57
2022-10-05T11:32:08.590Z,0.60
2022-10-05T11:34:59.671Z,0.88
2022-10-05T11:37:48.617Z,0.75
2022-10-05T11:40:56.792Z,0.60
2022-10-05T11:43:48.337Z,0.52
2022-10-05T11:46:23.824Z,0.50
2022-10-05T11:49:02.963Z,0.40
2022-10-05T11:51:44.588Z,0.40
2022-10-05T11:54:25.894Z,0.50
2022-10-05T11:57:01.325Z,0.50
2022-10-05T11:59:35.743Z,0.40
2022-10-05T12:02:17.790Z,0.40
2022-10-05T12:04:56.075Z,0.40
2022-10-05T12:07:29.987Z,0.50
2022-10-05T12:10:16.771Z,0.40
2022-10-05T12:13:05.555Z,0.32
2022-10-05T12:15:43.048Z,0.40
2022-10-05T12:18:16.104Z,0.30
2022-10-05T12:20:50.375Z,0.38
2022-10-05T12:25:54.540Z,0.40
2022-10-05T12:28:30.808Z,0.40
2022-10-05T12:31:09.234Z,0.40
2022-10-05T12:33:45.108Z,0.50
2022-10-05T12:36:16.150Z,0.40
2022-10-05T12:38:51.112Z,0.40
2022-10-05T12:41:25.711Z,0.40
2022-10-05T12:44:07.453Z,0.50
2022-10-05T12:46:42.816Z,0.40
2022-10-05T12:49:41.038Z,0.63
2022-10-05T12:52:25.274Z,0.43
2022-10-05T12:55:05.667Z,0.45
2022-10-05T12:57:44.504Z,0.55
2022-10-05T13:00:21.781Z,0.50
2022-10-05T13:02:51.810Z,0.50
2022-10-05T13:05:26.351Z,0.40
2022-10-05T13:08:18.331Z,0.60
2022-10-05T13:10:49.125Z,0.60
2022-10-05T13:13:33.580Z,0.50
2022-10-05T13:16:22.406Z,0.60
2022-10-05T13:19:06.971Z,0.50
2022-10-05T13:24:19.104Z,0.50
2022-10-05T13:26:51.367Z,0.70
2022-10-05T13:29:26.171Z,0.50
2022-10-05T13:31:58.168Z,0.50
2022-10-05T13:34:55.777Z,0.50
2022-10-05T13:37:32.258Z,0.50
2022-10-05T13:40:12.539Z,0.50
2022-10-05T13:42:48.162Z,0.60
2022-10-05T13:45:20.727Z,0.70
2022-10-05T13:48:09.968Z,0.50
2022-10-05T13:50:45.883Z,0.50
2022-10-05T13:53:21.418Z,0.50
2022-10-05T13:55:54.512Z,1.17
2022-10-05T13:58:34.483Z,1.30
2022-10-05T14:01:03.803Z,0.63
2022-10-05T14:03:35.737Z,0.60
2022-10-05T14:06:11.555Z,0.70
2022-10-05T14:08:53.170Z,0.63
2022-10-05T14:11:22.864Z,0.50
2022-10-05T14:13:50.749Z,0.60
2022-10-05T14:16:23.765Z,0.60
2022-10-05T14:18:55.926Z,0.68
2022-10-05T14:21:25.426Z,0.50
2022-10-05T14:23:54.042Z,0.57
2022-10-05T14:26:32.956Z,0.60
2022-10-05T14:29:03.184Z,0.50
2022-10-05T14:31:37.210Z,0.60
2022-10-05T14:34:32.285Z,0.52
2022-10-05T14:37:02.732Z,0.50
2022-10-05T14:39:35.122Z,0.57
2022-10-05T14:42:15.625Z,0.63
2022-10-05T14:44:43.151Z,0.60
2022-10-05T14:47:21.060Z,0.60
2022-10-05T14:50:10.538Z,0.63
2022-10-05T14:52:41.075Z,0.60
2022-10-05T14:55:30.976Z,0.65
2022-10-05T14:58:10.179Z,0.60
2022-10-05T15:00:48.167Z,0.60
2022-10-05T15:03:35.404Z,0.60
2022-10-05T15:06:09.514Z,0.70
2022-10-05T15:09:16.402Z,0.60
2022-10-05T15:11:50.362Z,0.50
2022-10-05T15:14:22.657Z,0.40
2022-10-05T15:16:53.838Z,0.40
2022-10-05T15:19:27.888Z,0.40
2022-10-05T15:22:12.632Z,0.50
2022-10-05T15:24:46.568Z,0.60
2022-10-05T15:27:25.539Z,0.60
2022-10-05T15:30:04.308Z,0.40
2022-10-05T15:32:57.883Z,0.50
2022-10-05T15:35:54.172Z,0.47
2022-10-05T15:38:25.820Z,0.45
2022-10-05T15:41:07.538Z,0.40
2022-10-05T15:43:45.952Z,0.40
2022-10-05T15:46:18.964Z,0.50
2022-10-05T15:48:55.104Z,0.60
2022-10-05T15:51:41.467Z,0.63
2022-10-05T15:54:41.748Z,0.40
2022-10-05T15:57:15.307Z,0.47
2022-10-05T15:59:58.003Z,0.60
2022-10-05T16:02:31.729Z,0.50
2022-10-05T16:05:06.979Z,0.40
2022-10-05T16:08:13.949Z,0.43
2022-10-05T16:10:45.552Z,0.35
2022-10-05T16:13:23.430Z,0.40
2022-10-05T16:16:12.583Z,0.40
2022-10-05T16:18:54.907Z,0.40
2022-10-05T16:21:30.850Z,0.40
2022-10-05T16:24:16.437Z,0.55
2022-10-05T16:26:56.879Z,0.40
2022-10-05T16:29:38.255Z,0.50
2022-10-05T16:32:11.405Z,0.55
2022-10-05T16:34:50.386Z,0.60
2022-10-05T16:37:31.926Z,0.60
2022-10-05T16:40:03.636Z,0.60
2022-10-05T16:42:47.245Z,0.70
2022-10-05T16:45:46.090Z,0.80
2022-10-05T16:48:20.510Z,0.80
2022-10-05T16:51:01.242Z,0.80
2022-10-05T16:53:34.767Z,0.80
2022-10-05T16:56:05.488Z,0.82
2022-10-05T16:58:45.900Z,0.90
2022-10-05T17:01:27.825Z,0.90
2022-10-05T17:04:12.071Z,2.30
2022-10-05T17:07:09.074Z,0.95
2022-10-05T17:09:52.074Z,1.13
2022-10-05T17:12:45.457Z,0.88
2022-10-05T17:15:29.588Z,0.90
2022-10-05T17:18:12.666Z,0.82
2022-10-05T17:20:47.367Z,0.60
2022-10-05T17:23:30.216Z,0.70
2022-10-05T17:26:05.297Z,0.70
2022-10-05T17:28:40.401Z,0.65
2022-10-05T17:31:16.119Z,0.55
2022-10-05T17:34:26.315Z,0.60
2022-10-05T17:36:57.717Z,0.80
2022-10-05T17:39:47.326Z,0.70
2022-10-05T17:42:47.268Z,0.60
2022-10-05T17:45:50.825Z,0.60
2022-10-05T17:48:38.105Z,0.60
2022-10-05T17:51:35.212Z,0.50
2022-10-05T17:54:37.575Z,0.45
2022-10-05T17:57:21.454Z,0.52
2022-10-05T17:59:58.550Z,0.60
2022-10-05T18:02:42.763Z,0.60
2022-10-05T18:05:27.523Z,0.60
2022-10-05T18:08:31.813Z,0.60
2022-10-05T18:11:13.172Z,0.50
2022-10-05T18:13:46.184Z,0.50
2022-10-05T18:16:14.408Z,0.50
2022-10-05T18:18:57.895Z,0.52
2022-10-05T18:21:35.712Z,0.50
2022-10-05T18:24:19.919Z,0.40
2022-10-05T18:26:57.203Z,0.50
2022-10-05T18:29:55.778Z,0.60
2022-10-05T18:32:34.704Z,0.60
2022-10-05T18:35:08.359Z,0.60
2022-10-05T18:37:50.297Z,0.57
2022-10-05T18:40:32.348Z,0.63
2022-10-05T18:43:13.743Z,0.73
2022-10-05T18:45:59.030Z,0.70
2022-10-05T18:48:36.961Z,0.65
2022-10-05T18:51:11.975Z,1.00
2022-10-05T18:53:45.700Z,1.05
2022-10-05T18:56:22.488Z,1.15
2022-10-05T18:59:02.941Z,1.23
2022-10-05T19:01:48.989Z,1.15
2022-10-05T19:04:28.322Z,0.95
2022-10-05T19:07:08.347Z,0.85
2022-10-05T19:09:50.567Z,0.88
2022-10-05T19:12:26.738Z,0.80
2022-10-05T19:15:06.305Z,0.70
2022-10-05T19:17:52.577Z,0.70
2022-10-05T19:20:26.330Z,0.70
2022-10-05T19:23:09.304Z,0.65
2022-10-05T19:25:44.288Z,0.60
2022-10-05T19:28:20.436Z,0.50
2022-10-05T19:30:59.258Z,0.50
2022-10-05T19:33:34.596Z,0.50
2022-10-05T19:36:19.703Z,0.50
2022-10-05T19:39:03.285Z,0.40
2022-10-05T19:41:50.524Z,0.50
2022-10-05T19:44:26.915Z,0.50
2022-10-05T19:47:01.386Z,0.60
2022-10-05T19:49:48.430Z,0.50
2022-10-05T19:52:23.543Z,0.50
2022-10-05T19:55:04.546Z,0.60
2022-10-05T19:57:33.367Z,0.50
2022-10-05T20:00:00.924Z,0.50
2022-10-05T20:02:28.777Z,0.52
2022-10-05T20:05:07.271Z,0.50
2022-10-05T20:07:36.227Z,0.45
2022-10-05T20:10:26.586Z,0.40
2022-10-05T20:12:57.483Z,0.35
2022-10-05T20:15:44.666Z,0.50
2022-10-05T20:18:54.789Z,0.82
2022-10-05T20:21:46.417Z,0.50
2022-10-05T20:24:15.594Z,0.40
2022-10-05T20:27:15.708Z,0.50
2022-10-05T20:29:46.772Z,0.40
2022-10-05T20:32:19.412Z,0.40
2022-10-05T20:34:49.307Z,0.40
2022-10-05T20:37:18.506Z,0.40
2022-10-05T20:39:47.248Z,2.28
2022-10-05T20:42:15.001Z,0.45
2022-10-05T20:44:42.631Z,0.70
2022-10-05T20:47:12.059Z,0.50
2022-10-05T20:49:41.056Z,0.45
2022-10-05T20:52:10.802Z,0.50
2022-10-05T20:54:39.049Z,0.50
2022-10-05T20:57:08.306Z,0.50
2022-10-05T20:59:36.726Z,0.50
2022-10-05T21:02:04.364Z,0.50
2022-10-05T21:04:40.322Z,0.50
2022-10-05T21:07:08.210Z,0.40
2022-10-05T21:09:38.216Z,0.40
2022-10-05T21:12:06.010Z,0.40
2022-10-05T21:14:34.261Z,0.40
2022-10-05T21:17:02.168Z,0.40
2022-10-05T21:19:30.107Z,0.40
2022-10-05T21:21:59.097Z,0.45
2022-10-05T21:24:26.707Z,0.40
2022-10-05T21:26:57.530Z,0.40
2022-10-05T21:29:25.080Z,0.30
2022-10-05T21:31:52.657Z,0.50
2022-10-05T21:34:20.212Z,0.50
2022-10-05T21:36:47.706Z,0.50
2022-10-05T21:39:17.375Z,0.40
2022-10-05T21:41:44.873Z,1.55
2022-10-05T21:44:12.342Z,0.40
2022-10-05T21:46:40.539Z,0.50
2022-10-05T21:49:09.614Z,0.50
2022-10-05T21:51:37.887Z,0.50
2022-10-05T21:54:12.061Z,0.50
2022-10-05T21:56:44.466Z,0.50
2022-10-05T21:59:14.080Z,0.60
2022-10-05T22:01:41.531Z,0.50
2022-10-05T22:04:09.440Z,0.55
2022-10-05T22:06:37.361Z,0.50
2022-10-05T22:09:06.869Z,0.50
2022-10-05T22:11:34.368Z,0.50
2022-10-05T22:14:03.219Z,0.50
2022-10-05T22:16:33.118Z,0.50
2022-10-05T22:19:04.047Z,0.50
2022-10-05T22:21:34.201Z,0.50
2022-10-05T22:24:02.691Z,0.40
2022-10-05T22:26:30.630Z,0.50
2022-10-05T22:28:58.763Z,0.40
2022-10-05T22:31:27.747Z,0.40
2022-10-05T22:33:55.296Z,0.40
2022-10-05T22:36:22.909Z,0.40
2022-10-05T22:38:50.403Z,0.50
2022-10-05T22:41:18.300Z,0.40
2022-10-05T22:43:48.554Z,0.95
2022-10-05T22:46:16.090Z,0.40
2022-10-05T22:48:45.005Z,0.45
2022-10-05T22:51:12.533Z,0.40
2022-10-05T22:53:39.976Z,0.52
2022-10-05T22:56:08.677Z,0.50
2022-10-05T22:58:36.602Z,0.40
2022-10-05T23:01:05.931Z,0.47
2022-10-05T23:03:34.302Z,0.40
2022-10-05T23:06:05.403Z,0.40
2022-10-05T23:08:33.722Z,0.50
2022-10-05T23:11:02.641Z,0.60
2022-10-05T23:13:30.562Z,0.52
2022-10-05T23:15:58.355Z,0.50
2022-10-05T23:18:26.510Z,0.50
2022-10-05T23:20:55.070Z,0.45
2022-10-05T23:23:24.091Z,0.40
2022-10-05T23:25:51.541Z,0.50
2022-10-05T23:28:19.122Z,0.43
2022-10-05T23:30:46.718Z,0.40
2022-10-05T23:33:14.220Z,0.50
2022-10-05T23:35:41.663Z,0.47
2022-10-05T23:38:09.188Z,0.50
2022-10-05T23:40:37.972Z,0.50
2022-10-05T23:43:05.652Z,0.57
2022-10-05T23:45:33.183Z,0.40
2022-10-05T23:48:00.659Z,0.50
2022-10-05T23:50:28.126Z,0.57
2022-10-05T23:52:55.564Z,0.50
2022-10-05T23:55:23.026Z,0.55
2022-10-05T23:57:51.799Z,0.50
